createdAt,value
2019-01-25T00:01:30.705Z,32.90
2019-01-25T00:04:01.638Z,34.50
2019-01-25T00:06:32.514Z,35.37
2019-01-25T00:09:04.525Z,28.17
2019-01-25T00:11:35.596Z,30.60
2019-01-25T00:14:06.976Z,37.77
2019-01-25T00:16:37.915Z,34.80
2019-01-25T00:19:08.976Z,29.07
2019-01-25T00:21:39.756Z,31.43
2019-01-25T00:24:11.776Z,38.30
2019-01-25T00:26:42.556Z,29.97
2019-01-25T00:29:13.640Z,28.40
2019-01-25T00:31:44.628Z,33.33
2019-01-25T00:34:15.463Z,31.00
2019-01-25T00:36:46.236Z,37.03
2019-01-25T00:39:17.304Z,28.97
2019-01-25T00:41:48.186Z,28.87
2019-01-25T00:44:19.188Z,29.10
2019-01-25T00:46:50.101Z,26.70
2019-01-25T00:49:21.364Z,34.07
2019-01-25T00:51:52.240Z,38.10
2019-01-25T00:54:23.145Z,25.30
2019-01-25T00:56:54.012Z,27.80
2019-01-25T00:59:24.941Z,27.87
2019-01-25T01:01:55.829Z,31.77
2019-01-25T01:04:26.788Z,28.83
2019-01-25T01:06:57.703Z,32.47
2019-01-25T01:09:28.651Z,21.17
2019-01-25T01:11:59.580Z,30.90
2019-01-25T01:14:30.562Z,25.57
2019-01-25T01:17:01.383Z,32.93
2019-01-25T01:19:32.215Z,29.03
2019-01-25T01:22:03.200Z,24.63
2019-01-25T01:24:34.130Z,24.80
2019-01-25T01:27:05.022Z,35.97
2019-01-25T01:29:35.897Z,30.43
2019-01-25T01:32:06.751Z,29.30
2019-01-25T01:34:37.536Z,28.37
2019-01-25T01:37:08.427Z,32.40
2019-01-25T01:39:39.533Z,24.03
2019-01-25T01:42:10.438Z,33.73
2019-01-25T01:44:41.294Z,28.03
2019-01-25T01:47:12.075Z,25.90
2019-01-25T01:49:42.895Z,26.57
2019-01-25T01:52:13.785Z,35.60
2019-01-25T01:54:45.537Z,30.37
2019-01-25T01:57:16.381Z,34.13
2019-01-25T01:59:47.369Z,35.20
2019-01-25T02:02:18.326Z,29.43
2019-01-25T02:04:49.492Z,27.70
2019-01-25T02:07:20.444Z,28.53
2019-01-25T02:09:51.416Z,33.27
2019-01-25T02:12:22.212Z,27.60
2019-01-25T02:14:53.188Z,25.73
2019-01-25T02:17:24.908Z,31.27
2019-01-25T02:19:55.952Z,31.10
2019-01-25T02:22:26.849Z,29.83
2019-01-25T02:24:57.666Z,30.90
2019-01-25T02:27:28.438Z,34.23
2019-01-25T02:29:59.215Z,40.80
2019-01-25T02:32:30.032Z,32.13
2019-01-25T02:35:01.026Z,24.90
2019-01-25T02:37:31.884Z,30.27
2019-01-25T02:40:02.766Z,24.20
2019-01-25T02:42:33.554Z,33.63
2019-01-25T02:45:04.737Z,27.70
2019-01-25T02:47:35.660Z,29.93
2019-01-25T02:50:08.480Z,26.20
2019-01-25T02:52:39.350Z,32.10
2019-01-25T02:55:11.077Z,30.23
2019-01-25T02:57:41.840Z,25.90
2019-01-25T03:00:18.565Z,31.70
2019-01-25T03:02:49.450Z,30.07
2019-01-25T03:05:21.049Z,25.63
2019-01-25T03:07:52.186Z,27.83
2019-01-25T03:10:28.542Z,30.70
2019-01-25T03:12:56.020Z,32.70
2019-01-25T03:15:27.699Z,35.30
2019-01-25T03:17:58.470Z,38.00
2019-01-25T03:20:29.356Z,37.23
2019-01-25T03:23:00.153Z,31.47
2019-01-25T03:25:31.120Z,35.90
2019-01-25T03:28:02.045Z,32.20
2019-01-25T03:30:33.077Z,33.97
2019-01-25T03:33:03.896Z,31.70
2019-01-25T03:35:34.793Z,41.23
2019-01-25T03:38:06.382Z,29.33
2019-01-25T03:40:37.553Z,30.37
2019-01-25T03:43:08.366Z,29.37
2019-01-25T03:45:39.324Z,35.70
2019-01-25T03:48:10.181Z,27.30
2019-01-25T03:50:41.162Z,26.43
2019-01-25T03:53:11.911Z,30.50
2019-01-25T03:55:42.801Z,25.77
2019-01-25T03:58:13.581Z,36.47
2019-01-25T04:00:44.786Z,40.63
2019-01-25T04:03:15.700Z,32.90
2019-01-25T04:05:46.689Z,27.00
2019-01-25T04:08:17.555Z,34.23
2019-01-25T04:10:48.630Z,32.93
2019-01-25T04:13:19.557Z,33.47
2019-01-25T04:15:50.694Z,35.87
2019-01-25T04:18:21.714Z,30.07
2019-01-25T04:20:52.594Z,30.57
2019-01-25T04:23:23.524Z,27.07
2019-01-25T04:25:54.423Z,32.80
2019-01-25T04:28:25.193Z,32.83
2019-01-25T04:30:56.159Z,31.97
2019-01-25T04:33:26.939Z,26.73
2019-01-25T04:35:57.819Z,29.47
2019-01-25T04:38:28.708Z,32.10
2019-01-25T04:40:59.523Z,31.70
2019-01-25T04:43:30.319Z,28.63
2019-01-25T04:46:01.266Z,30.60
2019-01-25T04:48:32.058Z,27.13
2019-01-25T04:51:09.387Z,27.87
2019-01-25T04:53:40.307Z,26.53
2019-01-25T04:56:11.434Z,34.87
2019-01-25T04:58:42.157Z,24.23
2019-01-25T05:01:13.118Z,27.30
2019-01-25T05:03:44.105Z,32.57
2019-01-25T05:06:18.132Z,22.03
2019-01-25T05:08:49.013Z,35.03
2019-01-25T05:11:20.508Z,24.40
2019-01-25T05:13:51.187Z,25.33
2019-01-25T05:16:22.085Z,30.97
2019-01-25T05:18:52.872Z,30.40
2019-01-25T05:21:25.247Z,28.10
2019-01-25T05:23:56.152Z,31.17
2019-01-25T05:26:27.192Z,26.23
2019-01-25T05:28:58.061Z,28.17
2019-01-25T05:31:29.998Z,32.50
2019-01-25T05:34:00.727Z,31.33
2019-01-25T05:36:32.709Z,31.13
2019-01-25T05:39:04.658Z,27.30
2019-01-25T05:41:35.526Z,27.57
2019-01-25T05:44:06.426Z,30.53
2019-01-25T05:46:37.309Z,31.07
2019-01-25T05:49:08.129Z,29.57
2019-01-25T05:51:38.982Z,26.87
2019-01-25T05:54:10.004Z,28.30
2019-01-25T05:56:44.321Z,26.03
2019-01-25T05:59:16.564Z,31.90
2019-01-25T06:01:47.341Z,28.87
2019-01-25T06:04:18.172Z,24.13
2019-01-25T06:06:49.903Z,30.17
2019-01-25T06:09:23.693Z,32.70
2019-01-25T06:11:54.559Z,30.90
2019-01-25T06:14:25.417Z,30.33
2019-01-25T06:16:56.401Z,24.73
2019-01-25T06:19:27.282Z,26.70
2019-01-25T06:21:58.429Z,27.93
2019-01-25T06:24:29.229Z,26.30
2019-01-25T06:27:00.105Z,29.47
2019-01-25T06:29:33.991Z,32.93
2019-01-25T06:32:05.343Z,32.97
2019-01-25T06:34:36.086Z,36.03
2019-01-25T06:37:07.124Z,28.03
2019-01-25T06:39:37.926Z,36.13
2019-01-25T06:42:08.809Z,30.40
2019-01-25T06:44:39.912Z,42.93
2019-01-25T06:47:10.828Z,32.77
2019-01-25T06:49:41.614Z,31.63
2019-01-25T06:52:12.561Z,28.40
2019-01-25T06:54:43.362Z,33.17
2019-01-25T06:57:33.038Z,25.80
2019-01-25T07:00:03.982Z,35.73
2019-01-25T07:02:37.728Z,30.17
2019-01-25T07:05:09.433Z,37.70
2019-01-25T07:07:42.193Z,33.90
2019-01-25T07:10:16.054Z,32.30
2019-01-25T07:12:48.150Z,27.30
2019-01-25T07:15:22.441Z,26.13
2019-01-25T07:17:54.114Z,28.77
2019-01-25T07:20:27.247Z,35.90
2019-01-25T07:22:58.446Z,31.67
2019-01-25T07:25:29.333Z,31.73
2019-01-25T07:28:00.188Z,32.57
2019-01-25T07:30:31.008Z,27.50
2019-01-25T07:33:02.014Z,28.97
2019-01-25T07:35:32.833Z,35.00
2019-01-25T07:38:04.490Z,31.23
2019-01-25T07:40:35.417Z,31.43
2019-01-25T07:43:06.499Z,30.80
2019-01-25T07:45:37.282Z,34.00
2019-01-25T07:48:08.181Z,34.83
2019-01-25T07:50:38.946Z,30.53
2019-01-25T07:53:09.742Z,29.23
2019-01-25T07:55:40.685Z,30.80
2019-01-25T07:58:11.497Z,35.10
2019-01-25T08:00:42.464Z,41.50
2019-01-25T08:03:13.364Z,40.03
2019-01-25T08:05:44.151Z,33.10
2019-01-25T08:08:15.061Z,35.67
2019-01-25T08:10:45.880Z,29.40
2019-01-25T08:13:17.255Z,36.27
2019-01-25T08:15:48.162Z,28.83
2019-01-25T08:18:19.191Z,28.30
2019-01-25T08:20:50.123Z,36.90
2019-01-25T08:23:21.549Z,30.77
2019-01-25T08:25:52.383Z,28.40
2019-01-25T08:28:23.362Z,26.40
2019-01-25T08:30:54.201Z,31.90
2019-01-25T08:33:25.255Z,37.63
2019-01-25T08:35:56.036Z,42.10
2019-01-25T08:38:26.948Z,43.27
2019-01-25T08:40:57.596Z,38.13
2019-01-25T08:43:28.450Z,36.20
2019-01-25T08:45:59.312Z,30.83
2019-01-25T08:48:30.321Z,41.53
2019-01-25T08:51:01.351Z,34.03
2019-01-25T08:53:32.132Z,29.97
2019-01-25T08:56:03.052Z,32.93
2019-01-25T08:58:35.821Z,53.93
2019-01-25T09:01:06.959Z,84.20
2019-01-25T09:03:38.005Z,61.30
2019-01-25T09:06:08.828Z,45.23
2019-01-25T09:08:39.817Z,31.17
2019-01-25T09:11:10.744Z,27.83
2019-01-25T09:13:41.510Z,26.70
2019-01-25T09:16:12.415Z,24.07
2019-01-25T09:18:43.354Z,30.53
2019-01-25T09:21:14.153Z,23.03
2019-01-25T09:23:45.034Z,26.57
2019-01-25T09:26:15.968Z,29.00
2019-01-25T09:28:46.927Z,22.40
2019-01-25T09:31:17.843Z,23.37
2019-01-25T09:33:49.070Z,21.27
2019-01-25T09:36:19.886Z,27.20
2019-01-25T09:38:50.761Z,31.23
2019-01-25T09:41:21.693Z,33.70
2019-01-25T09:43:52.652Z,28.17
2019-01-25T09:46:23.569Z,22.70
2019-01-25T09:48:54.415Z,27.10
2019-01-25T09:51:25.318Z,22.57
2019-01-25T09:53:56.191Z,21.30
2019-01-25T09:56:27.081Z,29.33
2019-01-25T09:58:58.599Z,25.37
2019-01-25T10:01:29.478Z,24.97
2019-01-25T10:04:00.252Z,25.20
2019-01-25T10:06:31.143Z,26.37
2019-01-25T10:09:02.412Z,27.43
2019-01-25T10:11:34.494Z,25.40
2019-01-25T10:14:05.453Z,26.97
2019-01-25T10:16:36.252Z,28.70
2019-01-25T10:19:07.011Z,28.50
2019-01-25T10:21:37.844Z,23.20
2019-01-25T10:24:08.680Z,24.47
2019-01-25T10:26:39.576Z,22.57
2019-01-25T10:29:10.465Z,23.10
2019-01-25T10:31:41.289Z,24.60
2019-01-25T10:34:12.370Z,18.43
2019-01-25T10:36:43.309Z,25.33
2019-01-25T10:39:14.304Z,21.10
2019-01-25T10:41:45.007Z,17.77
2019-01-25T10:44:15.881Z,17.93
2019-01-25T10:46:46.778Z,20.23
2019-01-25T10:49:17.781Z,25.13
2019-01-25T10:51:48.484Z,20.30
2019-01-25T10:54:19.660Z,19.37
2019-01-25T10:56:50.540Z,18.30
2019-01-25T10:59:21.492Z,22.40
2019-01-25T11:01:52.320Z,16.80
2019-01-25T11:04:23.088Z,20.70
2019-01-25T11:06:54.015Z,16.20
2019-01-25T11:09:25.007Z,18.90
2019-01-25T11:11:55.765Z,19.60
2019-01-25T11:14:26.954Z,23.40
2019-01-25T11:16:57.882Z,25.20
2019-01-25T11:19:28.902Z,21.93
2019-01-25T11:21:59.647Z,20.40
2019-01-25T11:24:30.683Z,18.40
2019-01-25T11:27:01.498Z,19.23
2019-01-25T11:29:32.374Z,19.27
2019-01-25T11:32:03.309Z,19.60
2019-01-25T11:34:34.193Z,20.77
2019-01-25T11:37:05.240Z,18.73
2019-01-25T11:39:36.192Z,23.93
2019-01-25T11:42:07.059Z,15.03
2019-01-25T11:44:38.361Z,27.63
2019-01-25T11:47:09.240Z,22.50
2019-01-25T11:49:40.236Z,23.40
2019-01-25T11:52:11.080Z,17.43
2019-01-25T11:54:41.880Z,21.30
2019-01-25T11:57:12.761Z,22.83
2019-01-25T11:59:43.577Z,22.00
2019-01-25T12:02:20.737Z,20.83
2019-01-25T12:04:47.046Z,21.47
2019-01-25T12:07:17.840Z,21.80
2019-01-25T12:09:49.856Z,22.87
2019-01-25T12:12:20.748Z,15.43
2019-01-25T12:14:51.505Z,36.77
2019-01-25T12:17:22.317Z,21.37
2019-01-25T12:19:53.419Z,19.97
2019-01-25T12:22:25.346Z,19.80
2019-01-25T12:24:56.185Z,19.40
2019-01-25T12:27:26.918Z,14.80
2019-01-25T12:29:58.940Z,18.70
2019-01-25T12:32:29.826Z,18.37
2019-01-25T12:35:01.823Z,24.40
2019-01-25T12:37:34.438Z,18.30
2019-01-25T12:40:06.481Z,18.37
2019-01-25T12:42:37.371Z,24.97
2019-01-25T12:45:10.400Z,18.37
2019-01-25T12:47:41.260Z,19.30
2019-01-25T12:50:16.029Z,18.53
2019-01-25T12:52:47.067Z,15.93
2019-01-25T12:55:18.340Z,15.17
2019-01-25T12:57:49.110Z,18.90
2019-01-25T13:00:23.698Z,18.03
2019-01-25T13:02:54.906Z,18.17
2019-01-25T13:05:25.951Z,17.40
2019-01-25T13:07:56.857Z,20.37
2019-01-25T13:10:28.294Z,16.47
2019-01-25T13:12:59.177Z,22.20
2019-01-25T13:15:30.108Z,13.20
2019-01-25T13:18:00.916Z,15.10
2019-01-25T13:20:31.879Z,14.37
2019-01-25T13:23:02.731Z,12.97
2019-01-25T13:25:33.690Z,15.80
2019-01-25T13:28:04.767Z,16.57
2019-01-25T13:30:35.651Z,15.47
2019-01-25T13:33:06.761Z,15.23
2019-01-25T13:35:37.746Z,17.30
2019-01-25T13:38:08.626Z,15.67
2019-01-25T13:40:39.515Z,17.27
2019-01-25T13:43:10.407Z,17.33
2019-01-25T13:45:41.605Z,14.90
2019-01-25T13:48:12.485Z,14.80
2019-01-25T13:50:43.364Z,17.33
2019-01-25T13:53:15.216Z,16.17
2019-01-25T13:55:46.151Z,20.40
2019-01-25T13:58:16.868Z,20.93
2019-01-25T14:00:47.738Z,18.33
2019-01-25T14:03:18.527Z,21.10
2019-01-25T14:05:49.386Z,16.00
2019-01-25T14:08:20.094Z,16.90
2019-01-25T14:10:51.813Z,16.40
2019-01-25T14:13:22.697Z,15.90
2019-01-25T14:15:53.559Z,17.63
2019-01-25T14:18:24.509Z,15.00
2019-01-25T14:20:55.391Z,16.93
2019-01-25T14:23:26.451Z,15.20
2019-01-25T14:25:57.319Z,14.83
2019-01-25T14:28:28.125Z,14.53
2019-01-25T14:30:59.291Z,18.60
2019-01-25T14:33:30.036Z,25.50
2019-01-25T14:36:01.102Z,17.03
2019-01-25T14:38:32.007Z,18.03
2019-01-25T14:41:02.791Z,16.13
2019-01-25T14:43:33.588Z,19.93
2019-01-25T14:46:04.424Z,10.33
2019-01-25T14:48:38.170Z,16.57
2019-01-25T14:51:07.872Z,14.70
2019-01-25T14:53:38.668Z,14.60
2019-01-25T14:56:09.560Z,15.50
2019-01-25T14:58:40.340Z,17.17
2019-01-25T15:01:11.433Z,25.27
2019-01-25T15:03:42.346Z,14.93
2019-01-25T15:06:13.265Z,12.93
2019-01-25T15:08:44.055Z,14.30
2019-01-25T15:11:14.971Z,16.47
2019-01-25T15:13:45.866Z,19.20
2019-01-25T15:16:16.756Z,13.40
2019-01-25T15:18:47.511Z,14.83
2019-01-25T15:21:18.288Z,13.70
2019-01-25T15:23:49.083Z,14.50
2019-01-25T15:26:20.079Z,13.73
2019-01-25T15:28:50.908Z,14.20
2019-01-25T15:31:21.761Z,14.60
2019-01-25T15:33:52.632Z,17.60
2019-01-25T15:36:23.511Z,12.67
2019-01-25T15:38:54.442Z,13.57
2019-01-25T15:41:25.415Z,16.23
2019-01-25T15:43:56.210Z,12.97
2019-01-25T15:46:27.240Z,14.03
2019-01-25T15:48:58.051Z,16.40
2019-01-25T15:51:28.844Z,15.77
2019-01-25T15:53:59.627Z,18.70
2019-01-25T15:56:30.752Z,26.20
2019-01-25T15:59:01.554Z,14.30
2019-01-25T16:01:32.674Z,15.80
2019-01-25T16:04:03.485Z,18.87
2019-01-25T16:06:34.407Z,13.80
2019-01-25T16:09:07.723Z,16.13
2019-01-25T16:11:38.909Z,15.67
2019-01-25T16:14:09.831Z,16.37
2019-01-25T16:16:40.894Z,15.20
2019-01-25T16:19:11.678Z,12.40
2019-01-25T16:21:42.536Z,17.50
2019-01-25T16:24:13.398Z,16.07
2019-01-25T16:26:44.514Z,14.37
2019-01-25T16:29:15.407Z,15.30
2019-01-25T16:31:48.035Z,19.10
2019-01-25T16:34:19.050Z,20.43
2019-01-25T16:36:50.915Z,17.40
2019-01-25T16:39:21.737Z,16.30
2019-01-25T16:41:52.679Z,14.27
2019-01-25T16:44:25.700Z,17.03
2019-01-25T16:46:56.215Z,21.00
2019-01-25T16:49:27.033Z,16.23
2019-01-25T16:51:58.099Z,21.43
2019-01-25T16:54:30.174Z,14.03
2019-01-25T16:57:01.332Z,19.77
2019-01-25T16:59:32.375Z,21.70
2019-01-25T17:02:03.594Z,13.57
2019-01-25T17:04:34.538Z,13.53
2019-01-25T17:07:05.505Z,16.50
2019-01-25T17:09:36.381Z,16.33
2019-01-25T17:12:08.306Z,18.67
2019-01-25T17:14:39.399Z,19.77
2019-01-25T17:17:10.321Z,14.90
2019-01-25T17:19:41.065Z,16.33
2019-01-25T17:22:11.971Z,17.53
2019-01-25T17:24:42.883Z,12.00
2019-01-25T17:27:14.111Z,19.53
2019-01-25T17:29:45.380Z,19.73
2019-01-25T17:32:16.255Z,13.50
2019-01-25T17:34:47.028Z,18.00
2019-01-25T17:37:17.892Z,54.67
2019-01-25T17:39:48.810Z,50.33
2019-01-25T17:42:19.658Z,54.70
2019-01-25T17:44:50.583Z,53.70
2019-01-25T17:47:21.516Z,65.90
2019-01-25T17:49:52.229Z,85.20
2019-01-25T17:52:23.102Z,97.73
2019-01-25T17:54:54.134Z,88.33
2019-01-25T17:57:25.192Z,102.90
2019-01-25T17:59:55.976Z,127.27
2019-01-25T18:02:26.842Z,135.87
2019-01-25T18:04:57.655Z,119.70
2019-01-25T18:07:28.468Z,101.93
2019-01-25T18:09:59.386Z,83.00
2019-01-25T18:12:30.320Z,70.33
2019-01-25T18:15:01.350Z,52.90
2019-01-25T18:17:33.146Z,45.80
2019-01-25T18:20:04.563Z,37.53
2019-01-25T18:22:35.403Z,32.10
2019-01-25T18:25:07.031Z,28.70
2019-01-25T18:27:38.084Z,37.80
2019-01-25T18:30:15.420Z,39.67
2019-01-25T18:32:46.268Z,46.40
2019-01-25T18:35:17.048Z,36.43
2019-01-25T18:37:49.158Z,43.40
2019-01-25T18:40:20.208Z,37.63
2019-01-25T18:42:51.199Z,33.23
2019-01-25T18:45:21.778Z,36.83
2019-01-25T18:47:53.649Z,36.87
2019-01-25T18:50:24.484Z,34.73
2019-01-25T18:52:55.269Z,44.40
2019-01-25T18:55:26.084Z,40.17
2019-01-25T18:57:56.961Z,44.50
2019-01-25T19:00:27.821Z,34.73
2019-01-25T19:02:58.703Z,34.20
2019-01-25T19:05:29.597Z,22.80
2019-01-25T19:08:00.598Z,19.17
2019-01-25T19:10:31.508Z,15.70
2019-01-25T19:13:02.607Z,20.00
2019-01-25T19:15:33.460Z,15.37
2019-01-25T19:18:04.831Z,14.77
2019-01-25T19:20:35.546Z,20.03
2019-01-25T19:23:06.466Z,14.80
2019-01-25T19:25:37.351Z,14.27
2019-01-25T19:28:08.302Z,16.40
2019-01-25T19:30:41.450Z,13.63
2019-01-25T19:33:14.047Z,13.63
2019-01-25T19:35:47.660Z,15.23
2019-01-25T19:38:21.238Z,10.40
2019-01-25T19:40:52.108Z,13.77
2019-01-25T19:43:23.288Z,14.97
2019-01-25T19:45:54.822Z,15.50
2019-01-25T19:48:26.308Z,11.67
2019-01-25T19:50:57.177Z,11.67
2019-01-25T19:53:28.078Z,15.33
2019-01-25T19:55:59.168Z,11.00
2019-01-25T19:58:30.384Z,13.60
2019-01-25T20:01:01.827Z,14.13
2019-01-25T20:03:32.826Z,14.17
2019-01-25T20:06:03.951Z,17.70
2019-01-25T20:08:35.089Z,16.93
2019-01-25T20:11:06.094Z,15.53
2019-01-25T20:13:37.285Z,20.20
2019-01-25T20:16:08.307Z,15.60
2019-01-25T20:18:39.575Z,16.80
2019-01-25T20:21:10.504Z,16.47
2019-01-25T20:23:41.776Z,16.40
2019-01-25T20:26:13.445Z,21.50
2019-01-25T20:28:44.291Z,16.20
2019-01-25T20:31:15.264Z,15.23
2019-01-25T20:33:47.188Z,13.20
2019-01-25T20:36:18.433Z,17.67
2019-01-25T20:38:49.499Z,20.07
2019-01-25T20:41:20.591Z,19.60
2019-01-25T20:43:51.505Z,17.47
2019-01-25T20:46:22.524Z,15.50
2019-01-25T20:48:53.515Z,16.83
2019-01-25T20:51:24.439Z,18.57
2019-01-25T20:53:55.480Z,15.80
2019-01-25T20:56:26.402Z,17.30
2019-01-25T20:58:57.599Z,14.77
2019-01-25T21:01:28.535Z,16.43
2019-01-25T21:03:59.562Z,16.20
2019-01-25T21:06:30.452Z,14.70
2019-01-25T21:09:01.557Z,19.27
2019-01-25T21:11:38.823Z,12.93
2019-01-25T21:14:09.677Z,12.50
2019-01-25T21:16:40.461Z,14.27
2019-01-25T21:19:11.343Z,14.30
2019-01-25T21:21:42.229Z,8.90
2019-01-25T21:24:13.100Z,13.57
2019-01-25T21:26:44.007Z,11.03
2019-01-25T21:29:14.762Z,7.80
2019-01-25T21:31:45.678Z,12.17
2019-01-25T21:34:16.755Z,9.10
2019-01-25T21:36:47.627Z,8.67
2019-01-25T21:39:18.330Z,9.10
2019-01-25T21:41:49.257Z,9.20
2019-01-25T21:44:20.842Z,8.10
2019-01-25T21:46:51.514Z,8.60
2019-01-25T21:49:22.418Z,11.97
2019-01-25T21:51:53.268Z,9.00
2019-01-25T21:54:24.240Z,7.80
2019-01-25T21:56:55.038Z,8.20
2019-01-25T21:59:25.991Z,9.07
2019-01-25T22:01:56.805Z,9.77
2019-01-25T22:04:27.719Z,7.70
2019-01-25T22:06:58.589Z,11.60
2019-01-25T22:09:29.463Z,8.70
2019-01-25T22:12:00.256Z,7.30
2019-01-25T22:14:31.332Z,9.87
2019-01-25T22:17:02.271Z,6.90
2019-01-25T22:19:33.306Z,12.40
2019-01-25T22:22:04.304Z,9.20
2019-01-25T22:24:35.239Z,11.20
2019-01-25T22:27:06.089Z,8.70
2019-01-25T22:29:37.006Z,12.60
2019-01-25T22:32:07.909Z,12.70
2019-01-25T22:34:39.190Z,10.10
2019-01-25T22:37:10.051Z,10.83
2019-01-25T22:39:40.874Z,11.27
2019-01-25T22:42:11.863Z,10.20
2019-01-25T22:44:42.633Z,9.67
2019-01-25T22:47:20.248Z,15.03
2019-01-25T22:49:46.067Z,11.73
2019-01-25T22:52:16.946Z,11.87
2019-01-25T22:54:47.880Z,10.30
2019-01-25T22:57:18.695Z,12.73
2019-01-25T22:59:49.565Z,8.40
2019-01-25T23:02:20.598Z,11.53
2019-01-25T23:05:32.491Z,11.37
2019-01-25T23:08:03.335Z,11.07
2019-01-25T23:10:34.393Z,10.80
2019-01-25T23:13:05.475Z,10.30
2019-01-25T23:15:37.399Z,13.30
2019-01-25T23:18:08.281Z,10.03
2019-01-25T23:20:39.242Z,12.20
2019-01-25T23:23:09.994Z,16.77
2019-01-25T23:25:41.130Z,10.30
2019-01-25T23:28:11.976Z,12.43
2019-01-25T23:30:42.918Z,10.03
2019-01-25T23:33:13.818Z,11.23
2019-01-25T23:35:45.099Z,14.33
2019-01-25T23:38:15.897Z,11.00
2019-01-25T23:40:46.777Z,12.60
2019-01-25T23:43:17.559Z,11.70
2019-01-25T23:45:48.444Z,12.77
2019-01-25T23:48:19.344Z,12.70
2019-01-25T23:50:50.268Z,10.97
2019-01-25T23:53:21.226Z,15.90
2019-01-25T23:55:52.079Z,11.63
2019-01-25T23:58:22.792Z,10.77
